Time;durP1;ratioP1;P1;durP2;ratioP2;P2;SDS_P1;SDS_P2;PMS_P1;PMS_P2;Temp;Humidity;BMP_temperature;BMP_pressure;BME280_temperature;BME280_humidity;BME280_pressure;Samples;Min_cycle;Max_cycle;Signal;HPM_P1;HPM_P2
2022/09/08 00:01:29;;;;;;;20.02;12.55;;;;;;;18.12;77.68;100814.75;5054777;28;20032;-58
2022/09/08 00:03:55;;;;;;;20.42;12.70;;;;;;;18.10;78.66;100812.31;5072268;28;20047;-58
2022/09/08 00:06:21;;;;;;;20.05;12.90;;;;;;;18.09;79.08;100805.09;5072805;28;20033;-58
2022/09/08 00:08:48;;;;;;;20.67;12.75;;;;;;;18.04;80.60;100799.75;5073529;28;20024;-59
2022/09/08 00:11:23;;;;;;;20.02;12.77;;;;;;;18.03;81.19;100789.75;5072954;28;20420;-58
2022/09/08 00:13:49;;;;;;;20.40;12.75;;;;;;;17.99;82.50;100789.66;5072890;28;20033;-58
2022/09/08 00:16:18;;;;;;;22.65;13.10;;;;;;;17.96;83.12;100793.16;5073132;28;20380;-59
2022/09/08 00:18:44;;;;;;;21.60;13.85;;;;;;;17.88;83.83;100789.31;5073126;28;20060;-59
2022/09/08 00:21:10;;;;;;;19.98;13.75;;;;;;;17.85;84.52;100794.81;5073112;28;20032;-58
2022/09/08 00:23:36;;;;;;;21.10;14.10;;;;;;;17.80;85.40;100797.88;5073402;28;20028;-58
2022/09/08 00:26:02;;;;;;;21.88;14.30;;;;;;;17.74;86.73;100802.91;5073025;28;20085;-58
2022/09/08 00:28:28;;;;;;;23.42;14.15;;;;;;;17.69;88.41;100803.16;5073574;28;20107;-59
2022/09/08 00:30:56;;;;;;;21.92;14.30;;;;;;;17.61;89.43;100796.56;5073052;28;20100;-58
2022/09/08 00:33:22;;;;;;;25.27;15.27;;;;;;;17.46;92.09;100796.13;5073069;28;20033;-59
2022/09/08 00:35:50;;;;;;;27.80;15.98;;;;;;;17.37;93.76;100792.66;5072587;28;20085;-58
2022/09/08 00:38:16;;;;;;;22.60;15.00;;;;;;;17.28;95.26;100798.41;5073071;28;20040;-58
2022/09/08 00:40:46;;;;;;;22.42;14.52;;;;;;;17.20;94.61;100796.53;5073238;28;20358;-58
2022/09/08 00:43:30;;;;;;;23.55;14.70;;;;;;;17.11;95.68;100791.09;5072612;28;20056;-58
2022/09/08 00:45:58;;;;;;;21.98;14.20;;;;;;;17.09;96.08;100803.81;5073292;28;20036;-58
2022/09/08 00:48:25;;;;;;;21.40;14.10;;;;;;;17.04;96.65;100818.00;5073300;28;20055;-60
2022/09/08 00:50:51;;;;;;;24.02;14.00;;;;;;;16.97;97.12;100802.66;5073318;28;20043;-58
2022/09/08 00:53:19;;;;;;;23.55;14.30;;;;;;;16.84;97.01;100795.41;5071987;28;20062;-58
2022/09/08 00:55:45;;;;;;;21.80;14.02;;;;;;;16.82;97.33;100781.78;5072688;28;20028;-59
2022/09/08 00:58:12;;;;;;;21.75;14.38;;;;;;;16.82;97.69;100775.38;5072240;28;20036;-60
2022/09/08 01:00:40;;;;;;;21.50;13.15;;;;;;;16.78;97.22;100768.88;5054470;28;20392;-59
2022/09/08 01:03:08;;;;;;;22.25;13.90;;;;;;;16.77;98.39;100772.81;5054242;28;20387;-59
2022/09/08 01:05:43;;;;;;;22.13;13.55;;;;;;;16.68;99.61;100761.75;5072648;28;20056;-59
2022/09/08 01:14:15;;;;;;;19.17;12.40;;;;;;;16.59;96.74;100747.09;5072937;28;20113;-59
2022/09/08 01:16:43;;;;;;;20.38;12.65;;;;;;;16.65;98.42;100754.91;5071988;28;20399;-60
2022/09/08 01:19:17;;;;;;;18.88;11.93;;;;;;;16.58;98.02;100735.13;5072233;28;20544;-61
2022/09/08 01:22:20;;;;;;;20.40;11.90;;;;;;;16.60;97.93;100737.56;5072810;28;20028;-61
2022/09/08 01:25:00;;;;;;;18.63;11.43;;;;;;;16.45;98.12;100728.75;5054356;28;20360;-59
2022/09/08 01:27:33;;;;;;;19.23;11.63;;;;;;;16.52;97.57;100742.94;5072394;28;20024;-60
2022/09/08 01:30:03;;;;;;;18.75;10.70;;;;;;;16.52;98.16;100725.38;5072378;28;20032;-59
2022/09/08 01:32:32;;;;;;;17.92;10.85;;;;;;;16.57;98.77;100719.53;5071719;28;20041;-60
2022/09/08 01:34:57;;;;;;;19.92;11.48;;;;;;;16.55;98.09;100719.06;5072416;28;20366;-59
2022/09/08 01:37:23;;;;;;;17.35;11.32;;;;;;;16.57;97.98;100708.38;5071873;28;20484;-59
2022/09/08 01:39:48;;;;;;;16.83;10.52;;;;;;;16.56;94.97;100712.31;5072262;28;20024;-59
2022/09/08 01:42:13;;;;;;;17.55;10.07;;;;;;;16.51;93.92;100702.22;5071829;28;20039;-59
2022/09/08 01:44:39;;;;;;;18.42;11.00;;;;;;;16.52;94.10;100703.03;5072144;28;20111;-61
2022/09/08 01:47:04;;;;;;;16.73;9.98;;;;;;;16.48;93.05;100694.53;5071480;28;20023;-59
2022/09/08 01:49:30;;;;;;;16.08;9.85;;;;;;;16.46;93.92;100699.66;5072380;28;20480;-60
2022/09/08 01:51:55;;;;;;;17.85;10.68;;;;;;;16.50;96.46;100705.34;5072276;28;20298;-59
2022/09/08 01:54:20;;;;;;;16.30;10.52;;;;;;;16.53;96.49;100704.66;5071209;28;20111;-59
2022/09/08 01:56:45;;;;;;;18.15;10.77;;;;;;;16.51;95.95;100698.63;5071853;28;20518;-59
2022/09/08 01:59:11;;;;;;;18.83;10.90;;;;;;;16.53;97.10;100708.25;5072067;28;20031;-60
2022/09/08 02:01:36;;;;;;;17.05;10.52;;;;;;;16.53;97.49;100704.66;5071350;28;20368;-60
2022/09/08 02:04:02;;;;;;;19.30;11.20;;;;;;;16.53;97.79;100699.88;5071382;28;20025;-59
2022/09/08 02:06:28;;;;;;;20.92;11.55;;;;;;;16.47;98.60;100678.97;5053458;28;20028;-59
2022/09/08 02:08:53;;;;;;;18.98;11.05;;;;;;;16.45;99.74;100677.66;5072012;28;20462;-61
2022/09/08 02:11:19;;;;;;;18.77;11.32;;;;;;;16.42;100.00;100676.38;5071827;28;20033;-60
2022/09/08 02:13:45;;;;;;;20.13;11.23;;;;;;;16.37;100.00;100674.66;5072199;28;20540;-59
2022/09/08 02:16:11;;;;;;;21.08;11.60;;;;;;;16.41;100.00;100683.13;5072284;28;20054;-58
2022/09/08 02:18:38;;;;;;;18.75;11.02;;;;;;;16.46;100.00;100670.91;5071729;28;20067;-58
2022/09/08 02:21:10;;;;;;;19.63;10.98;;;;;;;16.44;99.26;100662.06;5071788;28;20021;-58
2022/09/08 02:23:39;;;;;;;18.83;11.63;;;;;;;16.42;97.55;100659.63;5071397;28;20039;-58
2022/09/08 02:26:05;;;;;;;19.02;11.07;;;;;;;16.46;97.96;100663.38;5071971;28;20036;-59
2022/09/08 02:28:30;;;;;;;18.65;10.98;;;;;;;16.42;97.23;100650.47;5053774;28;20031;-59
2022/09/08 02:30:57;;;;;;;19.65;10.27;;;;;;;16.39;97.37;100654.75;5053831;28;20020;-58
2022/09/08 02:33:22;;;;;;;18.38;11.15;;;;;;;16.35;97.81;100646.25;5071432;28;20082;-59
2022/09/08 02:35:48;;;;;;;19.20;10.60;;;;;;;16.36;97.96;100644.31;5071108;28;20024;-59
2022/09/08 02:38:13;;;;;;;18.40;11.35;;;;;;;16.36;97.66;100658.25;5071582;28;20115;-59
2022/09/08 02:40:38;;;;;;;17.45;10.38;;;;;;;16.28;97.97;100650.81;5071368;28;20035;-59
2022/09/08 02:43:04;;;;;;;18.20;10.15;;;;;;;16.20;99.25;100644.19;5071622;28;20030;-59
2022/09/08 02:45:29;;;;;;;17.10;10.45;;;;;;;16.25;100.00;100660.69;5071079;28;20452;-59
2022/09/08 02:47:54;;;;;;;18.92;11.02;;;;;;;16.26;100.00;100648.38;5071329;28;20039;-59
2022/09/08 02:50:20;;;;;;;19.80;10.98;;;;;;;16.25;99.27;100643.94;5071220;28;20020;-59
2022/09/08 02:52:45;;;;;;;19.23;10.98;;;;;;;16.27;100.00;100652.78;5071701;28;20043;-59
2022/09/08 02:55:10;;;;;;;17.63;11.20;;;;;;;16.30;100.00;100654.06;5070989;28;20055;-58
2022/09/08 02:57:36;;;;;;;19.35;11.15;;;;;;;16.28;100.00;100643.25;5071547;28;20020;-59
2022/09/08 03:00:02;;;;;;;17.30;10.98;;;;;;;16.33;100.00;100664.53;5072746;28;20025;-59
2022/09/08 03:02:28;;;;;;;18.80;11.10;;;;;;;16.32;99.54;100651.72;5074321;28;20035;-58
2022/09/08 03:04:53;;;;;;;18.38;11.10;;;;;;;16.30;99.57;100645.69;5074433;28;20021;-60
2022/09/08 03:07:19;;;;;;;17.38;10.52;;;;;;;16.25;100.00;100652.31;5074426;28;20032;-59
2022/09/08 03:09:44;;;;;;;17.45;10.63;;;;;;;16.22;100.00;100658.63;5074616;28;20111;-59
2022/09/08 03:12:10;;;;;;;18.00;10.80;;;;;;;16.20;100.00;100666.53;5074183;28;20025;-60
2022/09/08 03:14:35;;;;;;;17.85;11.18;;;;;;;16.19;100.00;100662.09;5074484;28;20027;-60
2022/09/08 03:17:00;;;;;;;20.23;11.60;;;;;;;16.14;100.00;100651.19;5074404;28;20077;-58
2022/09/08 03:19:26;;;;;;;19.00;12.00;;;;;;;16.14;100.00;100659.56;5074472;28;20024;-60
2022/09/08 03:21:51;;;;;;;19.50;12.10;;;;;;;16.09;100.00;100662.56;5074476;28;20464;-60
2022/09/08 03:24:16;;;;;;;20.63;12.35;;;;;;;16.01;100.00;100664.31;5074896;28;20021;-60
2022/09/08 03:26:42;;;;;;;19.55;11.93;;;;;;;15.97;100.00;100655.81;5074582;28;20319;-59
2022/09/08 03:29:07;;;;;;;19.48;11.82;;;;;;;15.93;100.00;100652.09;5074349;28;20441;-59
2022/09/08 03:31:32;;;;;;;20.42;12.00;;;;;;;15.92;100.00;100652.47;5074114;28;20475;-59
2022/09/08 03:33:58;;;;;;;20.77;12.88;;;;;;;15.93;100.00;100648.47;5074254;28;20161;-59
2022/09/08 03:36:23;;;;;;;20.48;12.63;;;;;;;15.90;100.00;100650.81;5073537;28;20017;-57
2022/09/08 03:38:49;;;;;;;21.90;13.35;;;;;;;15.91;100.00;100648.84;5073399;28;20500;-59
2022/09/08 03:41:15;;;;;;;20.80;13.30;;;;;;;15.87;100.00;100643.13;5073940;28;20025;-59
2022/09/08 03:43:43;;;;;;;19.73;13.10;;;;;;;15.89;100.00;100651.16;5074244;28;20060;-60
2022/09/08 03:46:09;;;;;;;20.35;13.65;;;;;;;15.87;100.00;100654.28;5073499;28;20060;-60
2022/09/08 03:48:34;;;;;;;20.92;13.57;;;;;;;15.86;100.00;100657.44;5073424;28;20104;-60
2022/09/08 03:51:15;;;;;;;21.23;14.32;;;;;;;15.76;100.00;100650.28;5073826;28;20056;-59
2022/09/08 03:53:41;;;;;;;22.08;13.38;;;;;;;15.80;100.00;100675.50;5073192;28;20059;-59
2022/09/08 03:56:08;;;;;;;20.80;13.60;;;;;;;15.80;100.00;100683.88;5073591;28;20041;-59
2022/09/08 03:58:34;;;;;;;21.50;13.93;;;;;;;15.76;100.00;100678.19;5073647;28;20035;-57
2022/09/08 04:01:00;;;;;;;22.27;14.05;;;;;;;15.73;100.00;100682.50;5072965;28;20017;-58
2022/09/08 04:03:26;;;;;;;21.25;13.93;;;;;;;15.74;100.00;100666.56;5073780;28;20515;-59
2022/09/08 04:05:51;;;;;;;19.92;13.05;;;;;;;15.73;100.00;100653.75;5073838;28;20412;-59
2022/09/08 04:08:17;;;;;;;21.65;12.70;;;;;;;15.75;100.00;100641.13;5055103;28;20061;-59
2022/09/08 04:10:42;;;;;;;19.90;12.77;;;;;;;15.75;100.00;100640.28;5073574;28;20018;-59
2022/09/08 04:13:08;;;;;;;21.17;13.00;;;;;;;15.78;100.00;100636.81;5073824;28;20369;-60
2022/09/08 04:15:33;;;;;;;21.52;12.23;;;;;;;15.78;100.00;100644.34;5073908;28;20056;-58
2022/09/08 04:17:59;;;;;;;21.00;12.23;;;;;;;15.76;100.00;100650.28;5054402;28;20044;-59
2022/09/08 04:20:24;;;;;;;20.25;11.73;;;;;;;15.71;100.00;100654.13;5072772;28;20032;-58
2022/09/08 04:22:49;;;;;;;18.83;11.55;;;;;;;15.68;100.00;100651.22;5073152;28;20088;-59
2022/09/08 04:25:15;;;;;;;20.70;11.93;;;;;;;15.64;100.00;100651.09;5072953;28;20108;-59
2022/09/08 04:27:41;;;;;;;19.00;12.05;;;;;;;15.68;100.00;100654.81;5073479;28;20097;-59
2022/09/08 04:30:07;;;;;;;20.95;12.40;;;;;;;15.69;100.00;100662.00;5073476;28;20038;-59
2022/09/08 04:32:34;;;;;;;19.17;12.48;;;;;;;15.68;100.00;100657.59;5073250;28;20032;-58
2022/09/08 04:34:59;;;;;;;19.42;11.82;;;;;;;15.69;100.00;100661.22;5072391;28;20400;-58
2022/09/08 04:37:25;;;;;;;20.45;11.68;;;;;;;15.70;100.00;100666.44;5072731;28;20032;-58
2022/09/08 04:39:50;;;;;;;20.52;12.10;;;;;;;15.68;100.00;100668.75;5072959;28;20055;-59
2022/09/08 04:42:16;;;;;;;20.42;11.93;;;;;;;15.68;100.00;100668.75;5072324;28;20028;-58
2022/09/08 04:44:41;;;;;;;19.02;11.73;;;;;;;15.61;100.00;100660.13;5072164;28;20024;-59
2022/09/08 04:47:06;;;;;;;21.80;11.60;;;;;;;15.62;100.00;100674.91;5072218;28;20024;-59
2022/09/08 04:49:32;;;;;;;20.80;12.23;;;;;;;15.58;100.00;100672.00;5072023;28;20094;-58
2022/09/08 04:51:57;;;;;;;18.85;11.52;;;;;;;15.55;100.00;100672.69;5072700;28;20044;-58
2022/09/08 04:54:23;;;;;;;19.80;11.68;;;;;;;15.51;100.00;100680.09;5073170;28;20352;-59
2022/09/08 04:56:49;;;;;;;19.92;11.77;;;;;;;15.50;100.00;100681.25;5072823;28;20043;-58
2022/09/08 04:59:14;;;;;;;18.17;11.77;;;;;;;15.47;100.00;100682.75;5072291;28;20112;-58
2022/09/08 05:01:39;;;;;;;20.95;12.20;;;;;;;15.45;100.00;100679.50;5072674;28;20122;-60
2022/09/08 05:04:05;;;;;;;19.95;12.13;;;;;;;15.47;100.00;100687.53;5071807;28;20029;-59
2022/09/08 05:06:32;;;;;;;19.77;12.20;;;;;;;15.38;100.00;100673.66;5072643;28;20039;-60
2022/09/08 05:08:59;;;;;;;20.20;12.40;;;;;;;15.45;100.00;100679.50;5053704;28;20029;-60
2022/09/08 05:11:26;;;;;;;20.05;12.38;;;;;;;15.47;100.00;100679.97;5071888;28;20047;-60
2022/09/08 05:13:53;;;;;;;22.25;13.00;;;;;;;15.44;100.00;100677.88;5072765;28;20055;-60
2022/09/08 05:16:24;;;;;;;19.77;12.63;;;;;;;15.48;100.00;100689.16;5072546;28;20028;-60
2022/09/08 05:18:57;;;;;;;22.02;13.63;;;;;;;15.45;100.00;100687.84;5071997;28;20049;-61
2022/09/08 05:21:23;;;;;;;21.35;13.57;;;;;;;15.44;100.00;100687.06;5072287;28;20036;-60
2022/09/08 05:23:53;;;;;;;21.40;13.10;;;;;;;15.42;100.00;100694.94;5071718;28;20132;-60
2022/09/08 05:26:20;;;;;;;19.88;13.13;;;;;;;15.41;100.00;100696.09;5072274;28;20092;-60
2022/09/08 05:28:45;;;;;;;19.65;12.90;;;;;;;15.38;100.00;100682.88;5072415;28;20047;-60
2022/09/08 05:31:14;;;;;;;22.60;13.32;;;;;;;15.38;100.00;100679.25;5072410;28;20357;-60
2022/09/08 05:33:39;;;;;;;21.17;13.70;;;;;;;15.41;100.00;100690.53;5071713;28;20047;-60
2022/09/08 05:36:16;;;;;;;21.17;13.48;;;;;;;15.41;100.00;100682.16;5072043;28;20469;-60
2022/09/08 05:38:42;;;;;;;22.95;14.05;;;;;;;15.42;100.00;100685.78;5072262;28;20082;-60
2022/09/08 05:41:09;;;;;;;20.23;13.18;;;;;;;15.40;100.00;100691.66;5054282;28;20476;-59
2022/09/08 05:43:34;;;;;;;22.20;13.57;;;;;;;15.42;100.00;100689.38;5072349;28;20105;-61
2022/09/08 05:46:00;;;;;;;20.90;13.07;;;;;;;15.40;100.00;100685.28;5071815;28;20367;-60
2022/09/08 05:48:26;;;;;;;20.77;13.05;;;;;;;15.37;100.00;100677.59;5071737;28;20028;-60
2022/09/08 05:50:51;;;;;;;20.35;13.30;;;;;;;15.34;100.00;100681.09;5071683;28;20032;-61
2022/09/08 05:53:16;;;;;;;21.27;13.70;;;;;;;15.36;100.00;100676.81;5071677;28;20476;-60
2022/09/08 05:55:42;;;;;;;23.50;13.60;;;;;;;15.33;100.00;100676.69;5072226;28;20024;-60
2022/09/08 05:58:10;;;;;;;21.80;14.13;;;;;;;15.37;100.00;100681.22;5072229;28;20031;-60
2022/09/08 06:00:37;;;;;;;21.40;14.35;;;;;;;15.38;100.00;100668.09;5072043;28;20025;-60
2022/09/08 06:03:03;;;;;;;22.42;14.70;;;;;;;15.40;100.00;100674.94;5071859;28;20029;-60
2022/09/08 06:05:28;;;;;;;22.40;14.50;;;;;;;15.42;100.00;100674.63;5071859;28;20146;-61
2022/09/08 06:07:54;;;;;;;21.55;14.32;;;;;;;15.41;100.00;100679.38;5072023;28;20502;-61
2022/09/08 06:10:20;;;;;;;21.45;13.93;;;;;;;15.43;100.00;100681.84;5071745;28;20021;-58
2022/09/08 06:12:45;;;;;;;21.55;13.52;;;;;;;15.44;100.00;100680.69;5072403;28;20086;-60
2022/09/08 06:15:11;;;;;;;23.05;13.25;;;;;;;15.52;100.00;100687.31;5053945;28;20028;-61
2022/09/08 06:17:37;;;;;;;22.10;13.82;;;;;;;15.52;100.00;100688.13;5071691;28;20036;-61
2022/09/08 06:20:04;;;;;;;20.83;12.82;;;;;;;15.54;100.00;100687.78;5071894;28;20028;-61
2022/09/08 06:22:32;;;;;;;21.52;13.63;;;;;;;15.57;100.00;100687.09;5071887;28;20024;-61
2022/09/08 06:24:57;;;;;;;22.08;13.55;;;;;;;15.58;100.00;100689.53;5071910;28;20112;-61
2022/09/08 06:27:25;;;;;;;22.25;14.60;;;;;;;15.58;100.00;100683.97;5071856;28;20111;-60
2022/09/08 06:30:01;;;;;;;24.35;14.30;;;;;;;15.57;100.00;100684.31;5072305;28;20041;-61
2022/09/08 06:32:45;;;;;;;22.35;13.60;;;;;;;15.62;100.00;100691.66;5071699;28;20024;-61
2022/09/08 06:35:39;;;;;;;23.02;14.13;;;;;;;15.61;100.00;100690.81;5071640;28;20051;-60
2022/09/08 06:38:13;;;;;;;21.33;13.80;;;;;;;15.63;100.00;100682.94;5048311;28;20040;-61
2022/09/08 06:40:46;;;;;;;22.85;13.57;;;;;;;15.57;100.00;100673.16;5054286;28;20033;-60
2022/09/08 06:43:18;;;;;;;20.75;13.75;;;;;;;15.61;100.00;100674.09;5054212;28;20064;-61
2022/09/08 06:45:48;;;;;;;21.52;13.65;;;;;;;15.62;100.00;100681.28;5058308;28;20033;-61
2022/09/08 06:48:32;;;;;;;21.92;14.02;;;;;;;15.70;100.00;100699.09;5058720;28;20032;-60
2022/09/08 06:51:10;;;;;;;22.90;13.77;;;;;;;15.69;100.00;100701.06;5059485;28;20070;-59
2022/09/08 06:53:42;;;;;;;20.63;14.00;;;;;;;15.65;100.00;100691.78;5057505;28;20032;-61
2022/09/08 06:56:14;;;;;;;23.13;14.05;;;;;;;15.74;100.00;100702.81;5063799;28;20451;-60
2022/09/08 06:58:41;;;;;;;22.98;14.20;;;;;;;15.77;100.00;100704.13;5065480;28;20385;-61
2022/09/08 07:01:22;;;;;;;22.70;13.55;;;;;;;15.84;100.00;100696.81;5067101;28;20041;-60
2022/09/08 07:04:11;;;;;;;22.17;13.35;;;;;;;15.88;100.00;100688.56;5047464;28;20469;-59
2022/09/08 07:06:51;;;;;;;22.75;13.00;;;;;;;15.97;100.00;100694.06;5054004;28;20040;-61
2022/09/08 07:09:55;;;;;;;22.20;12.30;;;;;;;15.99;100.00;100686.97;5053534;28;20057;-60
2022/09/08 07:12:32;;;;;;;;;;;;;;;16.18;100.00;100707.91;5053625;28;20028;-61
2022/09/08 07:15:04;;;;;;;23.67;12.55;;;;;;;16.25;100.00;100710.94;5052723;28;19912;-60
2022/09/08 07:17:37;;;;;;;23.70;12.93;;;;;;;16.31;100.00;100697.56;5052560;28;20167;-60
2022/09/08 07:20:09;;;;;;;24.35;13.93;;;;;;;16.36;100.00;100694.56;5052767;28;20444;-60
2022/09/08 07:22:51;;;;;;;23.42;12.30;;;;;;;16.36;100.00;100708.50;5052602;28;20033;-59
2022/09/08 07:25:25;;;;;;;21.15;12.88;;;;;;;16.45;100.00;100709.19;5054172;28;20029;-59
2022/09/08 07:28:14;;;;;;;22.15;12.38;;;;;;;16.55;100.00;100707.91;5036172;28;20550;-60
2022/09/08 07:30:41;;;;;;;24.30;13.77;;;;;;;16.59;100.00;100706.03;5042667;28;20483;-60
2022/09/08 07:33:31;;;;;;;22.50;13.55;;;;;;;16.70;100.00;100717.53;5073518;28;20035;-61
2022/09/08 07:36:10;;;;;;;20.77;13.32;;;;;;;16.77;100.00;100701.00;5073044;28;20032;-61
2022/09/08 07:38:50;;;;;;;22.83;13.75;;;;;;;16.88;100.00;100711.69;5073096;28;20135;-60
2022/09/08 07:41:30;;;;;;;23.52;15.02;;;;;;;16.94;100.00;100711.13;5072774;28;20044;-59
2022/09/08 07:43:59;;;;;;;22.10;13.63;;;;;;;16.98;100.00;100703.69;5072765;28;20029;-61
2022/09/08 07:46:43;;;;;;;22.65;14.90;;;;;;;17.02;100.00;100702.94;5072067;28;20024;-59
2022/09/08 07:49:21;;;;;;;22.98;14.57;;;;;;;17.11;100.00;100704.44;5073136;28;20113;-60
2022/09/08 07:51:54;;;;;;;24.83;15.30;;;;;;;17.24;100.00;100710.00;5049992;28;20114;-60
2022/09/08 07:54:27;;;;;;;22.05;14.75;;;;;;;17.23;100.00;100695.19;5042917;28;20039;-59
2022/09/08 07:57:11;;;;;;;21.55;14.80;;;;;;;17.29;100.00;100712.53;5051200;28;20040;-60
2022/09/08 07:59:45;;;;;;;23.77;14.30;;;;;;;17.29;100.00;100710.53;5039985;28;20061;-60
2022/09/08 08:02:41;;;;;;;25.38;13.93;;;;;;;17.29;100.00;100709.75;5036305;28;20044;-60
2022/09/08 08:05:24;;;;;;;23.25;15.07;;;;;;;17.37;100.00;100714.38;5037083;28;20043;-58
2022/09/08 08:08:19;;;;;;;26.50;15.25;;;;;;;17.65;100.00;100715.53;5035959;28;20063;-58
2022/09/08 08:10:52;;;;;;;23.00;14.10;;;;;;;17.73;100.00;100701.34;5036048;28;20025;-59
2022/09/08 08:13:49;;;;;;;24.33;14.70;;;;;;;17.95;99.90;100715.94;5037334;28;20021;-60
2022/09/08 08:16:31;;;;;;;21.10;14.20;;;;;;;17.95;97.23;100706.72;5031236;28;20501;-60
2022/09/08 08:19:17;;;;;;;21.27;13.27;;;;;;;17.90;94.78;100705.81;5035255;28;20047;-59
2022/09/08 08:21:57;;;;;;;21.10;12.80;;;;;;;17.85;94.85;100710.84;5035242;28;20132;-60
2022/09/08 08:24:36;;;;;;;21.50;13.07;;;;;;;17.80;95.29;100723.13;5034587;28;20040;-58
2022/09/08 08:27:13;;;;;;;21.60;13.23;;;;;;;17.63;93.13;100707.47;5036598;28;20555;-61
2022/09/08 08:29:47;;;;;;;21.38;12.98;;;;;;;17.76;92.89;100713.81;5042467;28;20063;-59
2022/09/08 08:32:34;;;;;;;22.35;13.25;;;;;;;17.88;93.42;100716.53;5034753;28;20068;-59
2022/09/08 08:35:12;;;;;;;22.95;15.20;;;;;;;17.87;92.73;100706.53;5017699;28;20423;-58
2022/09/08 08:37:40;;;;;;;22.25;13.57;;;;;;;18.01;92.90;100719.31;5036821;28;20515;-61
2022/09/08 08:40:22;;;;;;;22.98;13.48;;;;;;;18.06;92.66;100714.25;5037352;28;20029;-60
2022/09/08 08:43:20;;;;;;;20.58;13.00;;;;;;;18.05;90.95;100714.59;5036399;28;20021;-60
2022/09/08 08:46:25;;;;;;;21.25;12.43;;;;;;;17.75;90.08;100721.41;5035881;28;20098;-59
2022/09/08 08:49:20;;;;;;;20.08;12.60;;;;;;;17.62;90.22;100726.25;5017816;28;20048;-59
2022/09/08 08:52:01;;;;;;;20.95;12.32;;;;;;;17.60;89.80;100730.59;5022375;28;20131;-59
2022/09/08 08:55:08;;;;;;;20.77;12.65;;;;;;;17.55;90.21;100733.63;5033273;28;20451;-60
2022/09/08 08:57:49;;;;;;;20.55;12.25;;;;;;;17.61;91.07;100735.03;5034697;28;20045;-60
2022/09/08 09:00:18;;;;;;;22.60;12.95;;;;;;;17.69;90.03;100728.44;5036952;28;20055;-60
2022/09/08 09:03:15;;;;;;;19.00;11.65;;;;;;;17.81;88.27;100732.31;5035583;28;20519;-60
2022/09/08 09:06:02;;;;;;;20.20;13.00;;;;;;;18.05;90.61;100728.59;5033984;28;20047;-59
2022/09/08 09:08:53;;;;;;;20.45;12.30;;;;;;;18.23;88.31;100724.25;5037001;28;20088;-60
2022/09/08 09:11:33;;;;;;;18.55;11.07;;;;;;;18.46;85.47;100722.81;5037038;28;20112;-61
2022/09/08 09:14:06;;;;;;;19.52;11.18;;;;;;;18.67;85.22;100725.31;5037217;28;20037;-60
2022/09/08 09:16:59;;;;;;;18.92;11.77;;;;;;;18.73;84.16;100729.44;5036220;28;20443;-60
2022/09/08 09:20:05;;;;;;;17.98;11.68;;;;;;;18.65;84.21;100708.88;5035542;28;20043;-60
2022/09/08 09:22:46;;;;;;;17.67;10.70;;;;;;;18.98;82.09;100718.03;5007330;28;20036;-60
2022/09/08 09:25:35;;;;;;;19.23;11.07;;;;;;;19.28;81.78;100721.06;5036438;28;20033;-60
2022/09/08 09:28:19;;;;;;;19.05;11.35;;;;;;;19.30;80.29;100720.69;5036321;28;20035;-60
2022/09/08 09:31:26;;;;;;;18.52;11.38;;;;;;;19.22;81.18;100718.91;5036659;28;20025;-59
2022/09/08 09:34:13;;;;;;;19.08;11.80;;;;;;;19.06;82.57;100730.19;5035616;28;20037;-58
2022/09/08 09:36:47;;;;;;;18.42;10.95;;;;;;;18.74;82.82;100721.88;5038738;28;20025;-60
2022/09/08 09:39:34;;;;;;;17.00;10.73;;;;;;;18.70;84.15;100733.00;5034701;28;20031;-59
2022/09/08 09:42:27;;;;;;;18.20;10.38;;;;;;;18.54;81.74;100719.81;5017761;28;20647;-59
2022/09/08 09:45:08;;;;;;;18.65;10.70;;;;;;;18.43;83.12;100726.34;5036180;28;20087;-60
2022/09/08 09:47:47;;;;;;;19.58;10.77;;;;;;;18.36;82.37;100729.78;5037080;28;20029;-61
2022/09/08 09:50:40;;;;;;;18.88;10.48;;;;;;;18.39;81.64;100724.25;5042162;28;20053;-60
2022/09/08 09:53:20;;;;;;;19.58;11.05;;;;;;;18.60;82.63;100720.34;5042997;28;20028;-60
2022/09/08 09:56:24;;;;;;;18.52;10.70;;;;;;;18.85;81.67;100718.13;5048153;28;20033;-60
2022/09/08 09:59:08;;;;;;;16.80;9.43;;;;;;;18.97;79.97;100719.19;4988797;28;20161;-61
2022/09/08 10:02:08;;;;;;;17.20;9.70;;;;;;;19.09;79.06;100719.06;4988597;28;20514;-60
2022/09/08 10:04:55;;;;;;;16.15;9.20;;;;;;;19.30;77.50;100715.06;5022747;28;20463;-60
2022/09/08 10:07:23;;;;;;;17.20;9.50;;;;;;;19.44;76.50;100718.19;5030500;28;20466;-60
2022/09/08 10:10:00;;;;;;;17.42;9.27;;;;;;;19.53;75.59;100714.34;5035770;28;20025;-61
2022/09/08 10:13:13;;;;;;;16.17;9.00;;;;;;;19.48;74.48;100716.25;5036854;28;20061;-59
2022/09/08 10:15:59;;;;;;;15.68;9.38;;;;;;;19.37;73.79;100720.03;5036996;28;20093;-60
2022/09/08 10:18:43;;;;;;;15.98;8.70;;;;;;;19.46;73.73;100720.59;5037062;28;20049;-61
2022/09/08 10:21:24;;;;;;;;;;;;;;;19.53;74.27;100715.13;5037645;28;20022;-60
2022/09/08 10:24:23;;;;;;;16.23;9.40;;;;;;;19.46;74.69;100707.38;5036317;28;19924;-62
2022/09/08 10:27:17;;;;;;;16.17;9.30;;;;;;;19.45;74.01;100708.59;5037157;28;20355;-61
2022/09/08 10:29:58;;;;;;;;;;;;;;;19.74;73.67;100723.13;5037360;28;20569;-61
2022/09/08 10:32:26;;;;;;;17.55;9.40;;;;;;;19.79;72.24;100727.63;5037120;28;19917;-61
2022/09/08 10:35:10;;;;;;;14.98;8.80;;;;;;;19.92;71.82;100717.91;5037061;28;20037;-61
2022/09/08 10:37:53;;;;;;;;;;;;;;;20.00;71.89;100721.66;5037338;28;20017;-60
2022/09/08 10:40:53;;;;;;;17.27;9.10;;;;;;;19.98;71.17;100712.78;5036888;28;19959;-60
2022/09/08 10:43:25;;;;;;;14.65;8.85;;;;;;;19.93;69.24;100713.09;5036371;28;20132;-58
2022/09/08 10:46:13;;;;;;;16.65;9.45;;;;;;;20.05;68.92;100709.28;5036579;28;20033;-60
2022/09/08 10:49:17;;;;;;;14.93;9.02;;;;;;;20.25;70.86;100715.63;5055511;28;20039;-60
2022/09/08 10:52:21;;;;;;;17.58;9.27;;;;;;;20.49;67.17;100702.38;5057291;28;20061;-60
2022/09/08 10:55:39;;;;;;;15.75;8.90;;;;;;;20.57;67.79;100696.47;5021169;28;20117;-60
2022/09/08 10:58:23;;;;;;;15.43;9.10;;;;;;;20.49;64.72;100703.19;4994884;28;20034;-60
2022/09/08 11:01:29;;;;;;;16.60;8.82;;;;;;;20.49;65.92;100697.56;4995142;28;20030;-62
2022/09/08 11:04:32;;;;;;;15.18;9.05;;;;;;;20.45;66.68;100693.88;5047897;28;20033;-61
2022/09/08 11:07:28;;;;;;;16.73;9.27;;;;;;;20.26;67.68;100700.41;5051927;28;20041;-61
2022/09/08 11:10:39;;;;;;;15.85;9.40;;;;;;;20.40;67.77;100691.41;5036765;28;20029;-61
2022/09/08 11:13:24;;;;;;;16.40;8.80;;;;;;;20.37;65.92;100686.53;5036741;28;20025;-63
2022/09/08 11:16:15;;;;;;;16.00;9.15;;;;;;;20.63;68.20;100705.41;5051622;28;20048;-60
2022/09/08 11:18:40;;;;;;;19.35;10.20;;;;;;;20.86;66.87;100701.75;5075009;28;20192;-60
2022/09/08 11:21:25;;;;;;;14.02;9.07;;;;;;;20.99;66.10;100696.69;5071675;28;20472;-61
2022/09/08 11:24:10;;;;;;;17.13;8.90;;;;;;;20.76;65.10;100699.59;5067814;28;20044;-60
2022/09/08 11:27:04;;;;;;;17.98;9.50;;;;;;;20.66;64.92;100701.00;5052015;28;20036;-61
2022/09/08 11:29:37;;;;;;;17.77;9.50;;;;;;;20.39;64.91;100707.47;5052154;28;20107;-60
2022/09/08 11:32:21;;;;;;;17.50;9.10;;;;;;;20.25;64.26;100699.63;5051893;28;20103;-61
2022/09/08 11:35:21;;;;;;;16.38;9.13;;;;;;;20.15;66.26;100702.22;5051495;28;20033;-60
2022/09/08 11:38:04;;;;;;;15.13;8.70;;;;;;;20.06;66.40;100683.63;5050815;28;20029;-61
2022/09/08 11:41:08;;;;;;;14.82;8.90;;;;;;;20.51;66.74;100691.56;5050540;28;20037;-60
2022/09/08 11:43:50;;;;;;;17.50;8.85;;;;;;;20.81;63.86;100688.81;5041949;28;20528;-60
2022/09/08 11:46:57;;;;;;;16.77;8.52;;;;;;;21.04;63.89;100680.28;5050983;28;20032;-61